sensor_id;sensor_type;location;lat;lon;timestamp;pressure;altitude;pressure_sealevel;temperature;humidity
33795;BME280;51430;52.242;21.118;2024-01-15T00:50:32;98099.79;;;2.11;98.14
33795;BME280;51430;52.242;21.118;2024-01-15T04:26:25;97805.13;;;1.52;100.00
33795;BME280;51430;52.242;21.118;2024-01-15T04:56:54;97773.38;;;1.63;98.45
33795;BME280;51430;52.242;21.118;2024-01-15T05:15:02;97753.32;;;1.85;96.56
33795;BME280;51430;52.242;21.118;2024-01-15T05:31:31;97744.90;;;1.91;95.49
33795;BME280;51430;52.242;21.118;2024-01-15T06:06:05;97740.67;;;1.78;94.64
33795;BME280;51430;52.242;21.118;2024-01-15T06:08:53;97740.11;;;1.95;94.61
33795;BME280;51430;52.242;21.118;2024-01-15T06:11:20;97735.63;;;1.91;94.90
33795;BME280;51430;52.242;21.118;2024-01-15T06:13:50;97736.52;;;1.95;94.97
33795;BME280;51430;52.242;21.118;2024-01-15T06:19:42;97726.09;;;1.78;95.37
33795;BME280;51430;52.242;21.118;2024-01-15T06:29:02;97720.61;;;1.98;93.93
33795;BME280;51430;52.242;21.118;2024-01-15T06:31:30;97710.64;;;1.82;94.44
33795;BME280;51430;52.242;21.118;2024-01-15T06:33:57;97707.64;;;1.70;95.27
33795;BME280;51430;52.242;21.118;2024-01-15T06:39:13;97703.45;;;1.78;94.44
33795;BME280;51430;52.242;21.118;2024-01-15T06:41:52;97703.45;;;1.80;94.91
33795;BME280;51430;52.242;21.118;2024-01-15T06:44:25;97711.42;;;1.83;95.27
33795;BME280;51430;52.242;21.118;2024-01-15T06:46:55;97711.73;;;1.83;95.32
33795;BME280;51430;52.242;21.118;2024-01-15T06:49:23;97706.06;;;1.73;95.26
33795;BME280;51430;52.242;21.118;2024-01-15T06:51:52;97701.53;;;1.72;95.96
33795;BME280;51430;52.242;21.118;2024-01-15T06:56:37;97700.98;;;1.96;94.42
33795;BME280;51430;52.242;21.118;2024-01-15T06:59:05;97697.67;;;1.89;94.04
33795;BME280;51430;52.242;21.118;2024-01-15T07:01:33;97703.30;;;1.77;94.32
33795;BME280;51430;52.242;21.118;2024-01-15T07:04:01;97699.60;;;1.91;93.04
33795;BME280;51430;52.242;21.118;2024-01-15T07:06:39;97711.84;;;1.94;92.00
33795;BME280;51430;52.242;21.118;2024-01-15T07:09:27;97712.55;;;1.92;92.29
33795;BME280;51430;52.242;21.118;2024-01-15T07:11:55;97711.52;;;1.94;92.21
33795;BME280;51430;52.242;21.118;2024-01-15T07:14:38;97708.70;;;1.91;92.51
33795;BME280;51430;52.242;21.118;2024-01-15T07:17:07;97703.70;;;1.85;93.20
33795;BME280;51430;52.242;21.118;2024-01-15T07:19:35;97709.51;;;1.81;93.57
33795;BME280;51430;52.242;21.118;2024-01-15T07:22:07;97700.55;;;1.77;93.83
33795;BME280;51430;52.242;21.118;2024-01-15T07:24:35;97706.97;;;1.76;94.19
33795;BME280;51430;52.242;21.118;2024-01-15T07:27:04;97707.55;;;1.76;94.21
33795;BME280;51430;52.242;21.118;2024-01-15T07:29:32;97709.63;;;1.68;94.77
33795;BME280;51430;52.242;21.118;2024-01-15T07:32:08;97705.71;;;1.71;95.27
33795;BME280;51430;52.242;21.118;2024-01-15T07:34:36;97705.89;;;1.67;95.96
33795;BME280;51430;52.242;21.118;2024-01-15T07:37:04;97710.84;;;1.63;96.53
33795;BME280;51430;52.242;21.118;2024-01-15T07:39:33;97702.81;;;1.44;97.68
33795;BME280;51430;52.242;21.118;2024-01-15T07:42:02;97711.44;;;1.49;98.40
33795;BME280;51430;52.242;21.118;2024-01-15T07:44:30;97705.92;;;1.50;98.79
33795;BME280;51430;52.242;21.118;2024-01-15T07:46:58;97710.33;;;1.53;99.04
33795;BME280;51430;52.242;21.118;2024-01-15T07:49:30;97706.71;;;1.57;98.87
33795;BME280;51430;52.242;21.118;2024-01-15T07:52:01;97707.33;;;1.58;98.70
33795;BME280;51430;52.242;21.118;2024-01-15T07:54:53;97707.31;;;1.66;98.33
33795;BME280;51430;52.242;21.118;2024-01-15T07:57:34;97708.61;;;1.63;97.85
33795;BME280;51430;52.242;21.118;2024-01-15T08:00:43;97710.66;;;1.65;97.82
33795;BME280;51430;52.242;21.118;2024-01-15T08:03:19;97712.02;;;1.68;97.10
33795;BME280;51430;52.242;21.118;2024-01-15T08:12:19;97715.66;;;1.88;95.27
33795;BME280;51430;52.242;21.118;2024-01-15T08:15:08;97705.83;;;1.64;96.25
33795;BME280;51430;52.242;21.118;2024-01-15T08:17:57;97705.09;;;1.66;96.90
33795;BME280;51430;52.242;21.118;2024-01-15T08:20:45;97711.50;;;1.59;97.94
33795;BME280;51430;52.242;21.118;2024-01-15T08:23:13;97707.50;;;1.62;98.41
33795;BME280;51430;52.242;21.118;2024-01-15T08:25:42;97702.94;;;1.61;98.47
33795;BME280;51430;52.242;21.118;2024-01-15T08:28:08;97709.20;;;1.64;98.69
33795;BME280;51430;52.242;21.118;2024-01-15T08:30:39;97706.67;;;1.72;97.45
33795;BME280;51430;52.242;21.118;2024-01-15T08:33:10;97704.11;;;1.80;96.39
33795;BME280;51430;52.242;21.118;2024-01-15T08:35:47;97701.80;;;1.85;95.32
33795;BME280;51430;52.242;21.118;2024-01-15T08:38:15;97706.51;;;1.98;94.05
33795;BME280;51430;52.242;21.118;2024-01-15T08:40:43;97706.95;;;2.12;92.12
33795;BME280;51430;52.242;21.118;2024-01-15T08:43:11;97702.02;;;2.33;91.30
33795;BME280;51430;52.242;21.118;2024-01-15T08:45:38;97709.88;;;2.67;90.77
33795;BME280;51430;52.242;21.118;2024-01-15T08:48:05;97710.04;;;2.89;89.63
33795;BME280;51430;52.242;21.118;2024-01-15T08:50:32;97709.36;;;2.99;88.25
33795;BME280;51430;52.242;21.118;2024-01-15T08:53:04;97706.33;;;2.94;87.66
33795;BME280;51430;52.242;21.118;2024-01-15T08:55:33;97707.93;;;2.74;88.04
33795;BME280;51430;52.242;21.118;2024-01-15T08:58:00;97710.41;;;2.51;88.68
33795;BME280;51430;52.242;21.118;2024-01-15T09:00:26;97715.56;;;2.35;89.45
33795;BME280;51430;52.242;21.118;2024-01-15T09:02:53;97716.41;;;2.30;90.23
33795;BME280;51430;52.242;21.118;2024-01-15T09:05:20;97716.15;;;2.23;91.52
33795;BME280;51430;52.242;21.118;2024-01-15T09:07:47;97727.64;;;2.29;91.59
33795;BME280;51430;52.242;21.118;2024-01-15T09:10:14;97732.55;;;2.28;91.02
33795;BME280;51430;52.242;21.118;2024-01-15T09:12:41;97727.31;;;2.25;91.91
33795;BME280;51430;52.242;21.118;2024-01-15T09:15:09;97726.11;;;2.27;92.63
33795;BME280;51430;52.242;21.118;2024-01-15T09:17:36;97722.77;;;2.28;92.23
33795;BME280;51430;52.242;21.118;2024-01-15T09:20:03;97720.11;;;2.21;91.99
33795;BME280;51430;52.242;21.118;2024-01-15T09:22:32;97718.14;;;2.28;92.13
33795;BME280;51430;52.242;21.118;2024-01-15T09:24:59;97721.56;;;2.63;90.85
33795;BME280;51430;52.242;21.118;2024-01-15T09:27:27;97724.02;;;3.12;88.12
33795;BME280;51430;52.242;21.118;2024-01-15T09:29:57;97717.50;;;3.31;86.08
33795;BME280;51430;52.242;21.118;2024-01-15T09:32:24;97719.73;;;3.55;85.48
33795;BME280;51430;52.242;21.118;2024-01-15T09:34:52;97711.17;;;3.85;84.40
33795;BME280;51430;52.242;21.118;2024-01-15T09:37:22;97712.76;;;3.94;82.29
33795;BME280;51430;52.242;21.118;2024-01-15T09:40:14;97708.00;;;3.78;81.74
33795;BME280;51430;52.242;21.118;2024-01-15T09:42:46;97715.72;;;3.50;82.00
33795;BME280;51430;52.242;21.118;2024-01-15T09:45:14;97711.98;;;3.19;82.99
33795;BME280;51430;52.242;21.118;2024-01-15T09:47:45;97711.02;;;2.88;84.09
33795;BME280;51430;52.242;21.118;2024-01-15T09:50:15;97719.34;;;2.93;84.08
33795;BME280;51430;52.242;21.118;2024-01-15T09:52:44;97717.85;;;3.00;83.20
33795;BME280;51430;52.242;21.118;2024-01-15T09:55:36;97719.17;;;2.94;83.17
33795;BME280;51430;52.242;21.118;2024-01-15T09:58:08;97720.67;;;3.01;82.42
33795;BME280;51430;52.242;21.118;2024-01-15T10:01:02;97717.25;;;2.85;83.35
33795;BME280;51430;52.242;21.118;2024-01-15T10:04:34;97706.61;;;2.79;82.77
33795;BME280;51430;52.242;21.118;2024-01-15T10:08:00;97713.48;;;2.66;83.07
33795;BME280;51430;52.242;21.118;2024-01-15T10:10:28;97711.77;;;2.61;83.12
33795;BME280;51430;52.242;21.118;2024-01-15T10:13:12;97709.76;;;2.57;83.65
33795;BME280;51430;52.242;21.118;2024-01-15T10:15:45;97704.02;;;2.63;83.31
33795;BME280;51430;52.242;21.118;2024-01-15T10:18:15;97708.61;;;2.70;82.91
33795;BME280;51430;52.242;21.118;2024-01-15T10:20:45;97712.56;;;2.70;82.10
33795;BME280;51430;52.242;21.118;2024-01-15T10:23:14;97701.89;;;2.76;81.78
33795;BME280;51430;52.242;21.118;2024-01-15T10:25:42;97698.61;;;2.78;81.67
33795;BME280;51430;52.242;21.118;2024-01-15T10:28:09;97700.03;;;2.86;81.79
33795;BME280;51430;52.242;21.118;2024-01-15T10:30:37;97704.58;;;2.81;81.67
33795;BME280;51430;52.242;21.118;2024-01-15T10:33:04;97707.15;;;2.77;81.79
33795;BME280;51430;52.242;21.118;2024-01-15T10:35:33;97707.10;;;2.75;81.74
33795;BME280;51430;52.242;21.118;2024-01-15T10:38:01;97705.27;;;2.77;81.52
33795;BME280;51430;52.242;21.118;2024-01-15T10:40:32;97710.79;;;2.67;82.06
33795;BME280;51430;52.242;21.118;2024-01-15T10:43:00;97703.49;;;2.62;83.12
33795;BME280;51430;52.242;21.118;2024-01-15T10:45:28;97699.40;;;2.55;84.03
33795;BME280;51430;52.242;21.118;2024-01-15T10:47:55;97694.49;;;2.54;83.40
33795;BME280;51430;52.242;21.118;2024-01-15T10:50:26;97688.27;;;2.58;83.81
33795;BME280;51430;52.242;21.118;2024-01-15T10:52:55;97699.52;;;2.66;83.28
33795;BME280;51430;52.242;21.118;2024-01-15T10:58:55;97708.80;;;2.84;82.47
33795;BME280;51430;52.242;21.118;2024-01-15T11:02:25;97714.09;;;2.82;82.75
33795;BME280;51430;52.242;21.118;2024-01-15T11:05:39;97707.56;;;2.96;82.14
33795;BME280;51430;52.242;21.118;2024-01-15T11:15:04;97710.81;;;2.84;81.52
33795;BME280;51430;52.242;21.118;2024-01-15T11:21:19;97704.71;;;2.83;81.58
33795;BME280;51430;52.242;21.118;2024-01-15T11:25:35;97709.52;;;2.81;81.78
33795;BME280;51430;52.242;21.118;2024-01-15T11:28:48;97703.00;;;2.81;81.39
33795;BME280;51430;52.242;21.118;2024-01-15T11:45:15;97680.60;;;2.81;82.66
33795;BME280;51430;52.242;21.118;2024-01-15T11:48:13;97671.57;;;2.82;82.93
33795;BME280;51430;52.242;21.118;2024-01-15T11:50:53;97666.27;;;2.72;83.55
33795;BME280;51430;52.242;21.118;2024-01-15T12:02:33;97669.14;;;2.67;83.75
33795;BME280;51430;52.242;21.118;2024-01-15T12:06:24;97671.95;;;2.59;84.53
33795;BME280;51430;52.242;21.118;2024-01-15T12:10:16;97664.45;;;2.75;85.35
33795;BME280;51430;52.242;21.118;2024-01-15T12:13:49;97671.48;;;2.72;84.39
33795;BME280;51430;52.242;21.118;2024-01-15T12:18:33;97672.69;;;2.44;85.79
33795;BME280;51430;52.242;21.118;2024-01-15T12:23:34;97672.80;;;2.43;86.64
33795;BME280;51430;52.242;21.118;2024-01-15T12:55:52;97662.48;;;1.65;95.39
33795;BME280;51430;52.242;21.118;2024-01-15T12:58:52;97665.30;;;1.66;95.79
33795;BME280;51430;52.242;21.118;2024-01-15T13:05:28;97654.61;;;2.01;92.67
33795;BME280;51430;52.242;21.118;2024-01-15T13:11:53;97660.65;;;2.02;90.91
33795;BME280;51430;52.242;21.118;2024-01-15T13:14:24;97672.04;;;2.06;90.22
33795;BME280;51430;52.242;21.118;2024-01-15T13:16:58;97674.17;;;2.09;89.56
33795;BME280;51430;52.242;21.118;2024-01-15T13:19:27;97675.81;;;2.10;89.88
33795;BME280;51430;52.242;21.118;2024-01-15T13:21:59;97679.39;;;1.94;92.58
33795;BME280;51430;52.242;21.118;2024-01-15T13:24:29;97673.66;;;1.83;94.73
33795;BME280;51430;52.242;21.118;2024-01-15T13:27:02;97673.11;;;1.71;96.02
33795;BME280;51430;52.242;21.118;2024-01-15T13:29:34;97669.95;;;1.70;96.59
33795;BME280;51430;52.242;21.118;2024-01-15T13:32:03;97666.47;;;1.66;97.12
33795;BME280;51430;52.242;21.118;2024-01-15T13:34:35;97666.64;;;1.68;96.18
33795;BME280;51430;52.242;21.118;2024-01-15T13:37:03;97664.13;;;1.65;95.61
33795;BME280;51430;52.242;21.118;2024-01-15T13:41:53;97668.96;;;1.65;95.08
33795;BME280;51430;52.242;21.118;2024-01-15T13:45:05;97673.10;;;1.75;94.28
33795;BME280;51430;52.242;21.118;2024-01-15T13:53:44;97671.70;;;1.85;92.27
33795;BME280;51430;52.242;21.118;2024-01-15T13:56:12;97676.02;;;1.85;91.45
33795;BME280;51430;52.242;21.118;2024-01-15T13:58:43;97670.55;;;1.85;91.13
33795;BME280;51430;52.242;21.118;2024-01-15T14:01:17;97672.54;;;1.90;90.98
33795;BME280;51430;52.242;21.118;2024-01-15T14:03:45;97670.55;;;1.87;90.94
33795;BME280;51430;52.242;21.118;2024-01-15T14:06:49;97676.05;;;1.99;90.44
33795;BME280;51430;52.242;21.118;2024-01-15T14:09:18;97686.06;;;1.94;90.41
33795;BME280;51430;52.242;21.118;2024-01-15T14:11:46;97677.25;;;1.93;90.45
33795;BME280;51430;52.242;21.118;2024-01-15T14:14:15;97686.70;;;1.97;90.11
33795;BME280;51430;52.242;21.118;2024-01-15T14:16:45;97686.86;;;1.91;90.13
33795;BME280;51430;52.242;21.118;2024-01-15T14:19:34;97681.80;;;1.86;90.14
33795;BME280;51430;52.242;21.118;2024-01-15T14:22:05;97675.55;;;1.80;90.78
33795;BME280;51430;52.242;21.118;2024-01-15T14:24:33;97673.73;;;1.90;90.50
33795;BME280;51430;52.242;21.118;2024-01-15T14:27:04;97678.96;;;1.89;90.70
33795;BME280;51430;52.242;21.118;2024-01-15T14:29:33;97685.19;;;1.92;90.24
33795;BME280;51430;52.242;21.118;2024-01-15T14:32:04;97686.88;;;1.85;90.56
33795;BME280;51430;52.242;21.118;2024-01-15T14:34:33;97690.90;;;1.88;90.21
33795;BME280;51430;52.242;21.118;2024-01-15T14:40:05;97698.59;;;1.93;89.74
33795;BME280;51430;52.242;21.118;2024-01-15T14:48:07;97675.45;;;1.78;91.26
33795;BME280;51430;52.242;21.118;2024-01-15T14:51:38;97673.44;;;1.73;90.47
33795;BME280;51430;52.242;21.118;2024-01-15T14:54:26;97672.27;;;1.75;90.81
33795;BME280;51430;52.242;21.118;2024-01-15T14:56:57;97675.40;;;1.86;89.76
33795;BME280;51430;52.242;21.118;2024-01-15T14:59:28;97672.98;;;1.83;89.54
33795;BME280;51430;52.242;21.118;2024-01-15T15:02:05;97672.99;;;1.84;89.48
33795;BME280;51430;52.242;21.118;2024-01-15T15:52:05;97655.36;;;1.96;85.90
33795;BME280;51430;52.242;21.118;2024-01-15T16:21:02;97659.11;;;1.98;85.15
33795;BME280;51430;52.242;21.118;2024-01-15T17:03:19;97697.11;;;1.36;95.41
33795;BME280;51430;52.242;21.118;2024-01-15T17:06:15;97698.42;;;1.14;99.14
33795;BME280;51430;52.242;21.118;2024-01-15T17:11:48;97684.16;;;1.04;100.00
33795;BME280;51430;52.242;21.118;2024-01-15T17:17:02;97681.81;;;1.01;100.00
33795;BME280;51430;52.242;21.118;2024-01-15T17:30:19;97689.55;;;0.92;100.00
33795;BME280;51430;52.242;21.118;2024-01-15T17:36:03;97703.79;;;0.94;100.00
33795;BME280;51430;52.242;21.118;2024-01-15T17:39:03;97702.97;;;1.00;100.00
33795;BME280;51430;52.242;21.118;2024-01-15T17:48:34;97697.23;;;1.01;100.00
33795;BME280;51430;52.242;21.118;2024-01-15T17:52:10;97702.49;;;1.04;100.00
33795;BME280;51430;52.242;21.118;2024-01-15T17:54:54;97704.24;;;0.91;100.00
33795;BME280;51430;52.242;21.118;2024-01-15T18:14:17;97678.84;;;0.95;100.00
33795;BME280;51430;52.242;21.118;2024-01-15T18:24:27;97682.20;;;0.98;100.00
33795;BME280;51430;52.242;21.118;2024-01-15T18:26:54;97699.64;;;1.01;100.00
33795;BME280;51430;52.242;21.118;2024-01-15T18:29:39;97724.05;;;0.92;100.00
33795;BME280;51430;52.242;21.118;2024-01-15T18:32:12;97731.42;;;0.83;100.00
33795;BME280;51430;52.242;21.118;2024-01-15T18:35:16;97734.51;;;0.77;100.00
33795;BME280;51430;52.242;21.118;2024-01-15T18:37:45;97721.42;;;0.77;100.00
33795;BME280;51430;52.242;21.118;2024-01-15T18:40:14;97736.71;;;0.86;100.00
33795;BME280;51430;52.242;21.118;2024-01-15T18:43:03;97742.85;;;0.93;100.00
33795;BME280;51430;52.242;21.118;2024-01-15T18:45:33;97744.09;;;0.94;100.00
33795;BME280;51430;52.242;21.118;2024-01-15T18:48:03;97752.95;;;1.01;100.00
33795;BME280;51430;52.242;21.118;2024-01-15T18:50:32;97740.27;;;1.03;100.00
33795;BME280;51430;52.242;21.118;2024-01-15T18:53:00;97740.87;;;1.07;100.00
33795;BME280;51430;52.242;21.118;2024-01-15T18:55:27;97742.73;;;1.05;100.00
33795;BME280;51430;52.242;21.118;2024-01-15T18:57:55;97741.82;;;1.01;100.00
33795;BME280;51430;52.242;21.118;2024-01-15T19:00:26;97742.23;;;1.00;100.00
33795;BME280;51430;52.242;21.118;2024-01-15T19:02:54;97743.56;;;1.05;99.52
33795;BME280;51430;52.242;21.118;2024-01-15T19:05:24;97751.59;;;1.03;98.70
33795;BME280;51430;52.242;21.118;2024-01-15T19:07:52;97751.79;;;1.01;98.05
33795;BME280;51430;52.242;21.118;2024-01-15T19:10:19;97749.19;;;0.99;97.72
33795;BME280;51430;52.242;21.118;2024-01-15T19:12:48;97755.14;;;0.98;97.03
33795;BME280;51430;52.242;21.118;2024-01-15T19:15:35;97752.48;;;0.99;95.93
33795;BME280;51430;52.242;21.118;2024-01-15T19:19:49;97766.98;;;0.95;94.01
33795;BME280;51430;52.242;21.118;2024-01-15T19:23:03;97769.45;;;0.92;93.88
33795;BME280;51430;52.242;21.118;2024-01-15T19:29:20;97784.19;;;0.90;92.88
33795;BME280;51430;52.242;21.118;2024-01-15T19:36:28;97783.72;;;0.57;90.35
33795;BME280;51430;52.242;21.118;2024-01-15T19:43:33;97787.95;;;0.40;88.72
33795;BME280;51430;52.242;21.118;2024-01-15T19:46:58;97796.00;;;0.29;88.92
33795;BME280;51430;52.242;21.118;2024-01-15T19:50:52;97802.96;;;0.23;88.40
33795;BME280;51430;52.242;21.118;2024-01-15T19:54:00;97802.21;;;0.21;88.91
33795;BME280;51430;52.242;21.118;2024-01-15T20:01:10;97811.05;;;0.25;87.66
33795;BME280;51430;52.242;21.118;2024-01-15T20:27:21;97843.16;;;-0.09;85.42
33795;BME280;51430;52.242;21.118;2024-01-15T20:52:43;97884.52;;;-0.08;81.90
33795;BME280;51430;52.242;21.118;2024-01-15T20:59:27;97897.54;;;-0.18;82.86
33795;BME280;51430;52.242;21.118;2024-01-15T21:13:37;97911.24;;;-0.06;80.73
33795;BME280;51430;52.242;21.118;2024-01-15T21:31:23;97943.95;;;-0.08;81.02
